createdAt,value
2023-05-19T00:01:09.051Z,98116.38
2023-05-19T00:03:40.385Z,98110.91
2023-05-19T00:06:10.506Z,98107.88
2023-05-19T00:08:38.080Z,98112.03
2023-05-19T00:11:04.844Z,98103.47
2023-05-19T00:13:31.563Z,98097.16
2023-05-19T00:15:58.188Z,98096.41
2023-05-19T00:18:24.742Z,98098.63
2023-05-19T00:20:52.393Z,98103.63
2023-05-19T00:23:18.908Z,98100.22
2023-05-19T00:25:45.410Z,98100.94
2023-05-19T00:28:11.939Z,98093.28
2023-05-19T00:30:38.439Z,98093.88
2023-05-19T00:33:04.986Z,98088.63
2023-05-19T00:35:31.658Z,98091.72
2023-05-19T00:37:58.129Z,98094.53
2023-05-19T00:40:24.967Z,98090.81
2023-05-19T00:42:52.513Z,98104.56
2023-05-19T00:45:19.079Z,98103.00
2023-05-19T00:47:45.799Z,98093.28
2023-05-19T00:50:12.367Z,98095.69
2023-05-19T00:52:38.958Z,98095.16
2023-05-19T00:55:05.673Z,98090.19
2023-05-19T00:57:32.271Z,98092.75
2023-05-19T00:59:59.039Z,98090.66
2023-05-19T01:02:25.808Z,98095.78
2023-05-19T01:04:53.492Z,98091.66
2023-05-19T01:07:21.199Z,98092.50
2023-05-19T01:09:47.702Z,98090.91
2023-05-19T01:12:14.616Z,98091.53
2023-05-19T01:14:41.828Z,98093.75
2023-05-19T01:17:19.310Z,98097.44
2023-05-19T01:20:08.030Z,98094.28
2023-05-19T01:22:34.521Z,98091.06
2023-05-19T01:25:08.808Z,98093.84
2023-05-19T01:27:35.392Z,98089.91
2023-05-19T01:30:17.302Z,98089.97
2023-05-19T01:32:45.010Z,98096.59
2023-05-19T01:35:12.699Z,98091.19
2023-05-19T01:37:40.861Z,98094.75
2023-05-19T01:40:10.091Z,98100.00
2023-05-19T01:42:39.806Z,98098.16
2023-05-19T01:45:06.839Z,98091.59
2023-05-19T01:47:35.065Z,98093.63
2023-05-19T01:50:01.575Z,98097.22
2023-05-19T01:52:28.176Z,98094.53
2023-05-19T01:54:54.720Z,98098.31
2023-05-19T01:57:28.017Z,98092.34
2023-05-19T01:59:54.541Z,98086.94
2023-05-19T02:02:29.535Z,98081.84
2023-05-19T02:04:59.492Z,98085.88
2023-05-19T02:07:31.071Z,98085.31
2023-05-19T02:10:04.605Z,98082.63
2023-05-19T02:12:36.171Z,98081.25
2023-05-19T02:15:14.233Z,98076.78
2023-05-19T02:17:42.233Z,98078.94
2023-05-19T02:20:10.127Z,98077.84
2023-05-19T02:22:36.665Z,98083.34
2023-05-19T02:25:03.246Z,98073.22
2023-05-19T02:27:32.806Z,98073.28
2023-05-19T02:29:59.305Z,98077.41
2023-05-19T02:32:25.888Z,98073.94
2023-05-19T02:34:53.312Z,98070.28
2023-05-19T02:37:23.764Z,98073.59
2023-05-19T02:39:50.388Z,98071.66
2023-05-19T02:42:18.295Z,98075.22
2023-05-19T02:44:44.841Z,98072.22
2023-05-19T02:47:12.269Z,98066.50
2023-05-19T02:49:38.816Z,98069.13
2023-05-19T02:52:05.853Z,98067.34
2023-05-19T02:54:32.918Z,98072.13
2023-05-19T02:56:59.624Z,98068.66
2023-05-19T02:59:26.162Z,98067.66
2023-05-19T03:01:55.576Z,98062.56
2023-05-19T03:04:22.235Z,98062.00
2023-05-19T03:06:48.756Z,98063.63
2023-05-19T03:09:15.329Z,98050.50
2023-05-19T03:11:41.840Z,98065.47
2023-05-19T03:14:12.091Z,98059.31
2023-05-19T03:16:41.161Z,98058.25
2023-05-19T03:19:08.407Z,98063.63
2023-05-19T03:21:35.251Z,98066.41
2023-05-19T03:24:01.853Z,98059.72
2023-05-19T03:26:32.509Z,98054.28
2023-05-19T03:28:59.069Z,98062.88
2023-05-19T03:31:26.808Z,98062.44
2023-05-19T03:33:53.582Z,98056.16
2023-05-19T03:36:22.135Z,98055.38
2023-05-19T03:38:48.769Z,98058.25
2023-05-19T03:41:15.628Z,98061.97
2023-05-19T03:43:42.216Z,98059.13
2023-05-19T03:46:09.825Z,98066.09
2023-05-19T03:48:54.206Z,98064.72
2023-05-19T03:51:20.770Z,98061.31
2023-05-19T03:53:50.051Z,98067.19
2023-05-19T03:56:18.180Z,98061.88
2023-05-19T03:58:45.056Z,98065.41
2023-05-19T04:01:11.811Z,98062.19
2023-05-19T04:03:38.472Z,98057.78
2023-05-19T04:06:05.033Z,98066.06
2023-05-19T04:08:32.145Z,98070.69
2023-05-19T04:10:58.729Z,98069.53
2023-05-19T04:13:25.448Z,98066.44
2023-05-19T04:15:52.175Z,98075.03
2023-05-19T04:18:18.714Z,98074.19
2023-05-19T04:20:45.280Z,98077.41
2023-05-19T04:23:11.854Z,98082.41
2023-05-19T04:25:38.413Z,98091.41
2023-05-19T04:28:04.933Z,98097.91
2023-05-19T04:30:31.614Z,98110.06
2023-05-19T04:32:59.768Z,98117.69
2023-05-19T04:35:26.599Z,98101.84
2023-05-19T04:37:54.397Z,98110.81
2023-05-19T04:40:25.952Z,98111.41
2023-05-19T04:42:52.951Z,98119.84
2023-05-19T04:45:19.887Z,98110.56
2023-05-19T04:47:50.149Z,98123.41
2023-05-19T04:50:16.969Z,98125.50
2023-05-19T04:52:45.692Z,98121.25
2023-05-19T04:55:13.237Z,98123.31
2023-05-19T04:57:40.655Z,98115.28
2023-05-19T05:00:13.905Z,98120.91
2023-05-19T05:02:53.993Z,98131.72
2023-05-19T05:05:21.489Z,98122.75
2023-05-19T05:07:48.040Z,98131.34
2023-05-19T05:10:15.457Z,98135.88
2023-05-19T05:12:42.266Z,98140.84
2023-05-19T05:15:10.020Z,98142.84
2023-05-19T05:17:38.414Z,98141.31
2023-05-19T05:20:06.579Z,98139.84
2023-05-19T05:22:33.617Z,98147.81
2023-05-19T05:25:01.336Z,98150.44
2023-05-19T05:27:27.868Z,98148.41
2023-05-19T05:29:54.511Z,98153.75
2023-05-19T05:32:21.672Z,98152.72
2023-05-19T05:34:48.694Z,98150.81
2023-05-19T05:37:15.740Z,98159.31
2023-05-19T05:39:42.450Z,98157.69
2023-05-19T05:42:09.410Z,98153.44
2023-05-19T05:44:35.967Z,98150.72
2023-05-19T05:47:04.583Z,98150.69
2023-05-19T05:49:31.641Z,98162.09
2023-05-19T05:52:05.874Z,98156.47
2023-05-19T05:54:39.787Z,98163.34
2023-05-19T05:57:07.128Z,98165.88
2023-05-19T05:59:34.460Z,98172.28
2023-05-19T06:02:01.430Z,98162.03
2023-05-19T06:04:28.458Z,98170.59
2023-05-19T06:07:00.890Z,98168.00
2023-05-19T06:09:30.872Z,98165.88
2023-05-19T06:11:58.437Z,98173.31
2023-05-19T06:14:27.075Z,98169.84
2023-05-19T06:17:14.574Z,98175.03
2023-05-19T06:19:41.298Z,98176.03
2023-05-19T06:22:07.825Z,98172.97
2023-05-19T06:24:34.407Z,98174.75
2023-05-19T06:27:02.646Z,98179.09
2023-05-19T06:29:29.185Z,98176.03
2023-05-19T06:31:59.062Z,98176.38
2023-05-19T06:34:25.757Z,98178.97
2023-05-19T06:36:53.493Z,98185.66
2023-05-19T06:39:20.167Z,98186.63
2023-05-19T06:41:46.804Z,98180.81
2023-05-19T06:44:26.784Z,98176.09
2023-05-19T06:46:53.335Z,98178.38
2023-05-19T06:49:20.268Z,98178.72
2023-05-19T06:51:49.125Z,98181.78
2023-05-19T06:54:16.348Z,98174.31
2023-05-19T06:56:43.395Z,98181.78
2023-05-19T06:59:10.834Z,98181.56
2023-05-19T07:01:38.759Z,98176.81
2023-05-19T07:04:05.613Z,98175.44
2023-05-19T07:06:32.364Z,98179.97
2023-05-19T07:08:58.884Z,98178.94
2023-05-19T07:11:26.437Z,98172.22
2023-05-19T07:13:53.556Z,98178.97
2023-05-19T07:16:25.934Z,98165.72
2023-05-19T07:18:52.659Z,98178.06
2023-05-19T07:21:19.254Z,98173.19
2023-05-19T07:23:46.752Z,98171.69
2023-05-19T07:26:13.232Z,98166.75
2023-05-19T07:28:41.623Z,98162.31
2023-05-19T07:31:08.384Z,98163.38
2023-05-19T07:33:34.901Z,98157.59
2023-05-19T07:36:01.437Z,98155.56
2023-05-19T07:38:28.817Z,98157.56
2023-05-19T07:40:55.385Z,98153.34
2023-05-19T07:43:21.926Z,98152.50
2023-05-19T07:45:48.478Z,98155.22
2023-05-19T07:48:15.093Z,98150.78
2023-05-19T07:50:41.718Z,98153.41
2023-05-19T07:53:08.301Z,98150.22
2023-05-19T07:55:34.942Z,98144.25
2023-05-19T07:58:01.435Z,98146.16
2023-05-19T08:00:28.386Z,98142.66
2023-05-19T08:02:56.939Z,98145.41
2023-05-19T08:05:23.744Z,98138.56
2023-05-19T08:07:50.236Z,98145.38
2023-05-19T08:10:16.763Z,98137.19
2023-05-19T08:12:44.260Z,98143.69
2023-05-19T08:15:11.808Z,98135.69
2023-05-19T08:17:38.443Z,98137.25
2023-05-19T08:20:06.379Z,98135.84
2023-05-19T08:22:32.939Z,98132.38
2023-05-19T08:24:59.396Z,98141.41
2023-05-19T08:27:26.067Z,98137.19
2023-05-19T08:29:52.666Z,98134.03
2023-05-19T08:32:19.223Z,98141.81
2023-05-19T08:34:45.701Z,98145.25
2023-05-19T08:37:13.250Z,98140.84
2023-05-19T08:39:39.983Z,98143.00
2023-05-19T08:42:08.185Z,98139.09
2023-05-19T08:44:34.967Z,98135.78
2023-05-19T08:47:03.135Z,98142.19
2023-05-19T08:49:32.474Z,98144.56
2023-05-19T08:52:06.222Z,98142.22
2023-05-19T08:54:45.850Z,98141.78
2023-05-19T08:57:13.005Z,98153.66
2023-05-19T08:59:40.867Z,98152.56
2023-05-19T09:02:08.609Z,98149.13
2023-05-19T09:04:35.226Z,98138.41
2023-05-19T09:07:04.004Z,98147.00
2023-05-19T09:09:30.573Z,98138.56
2023-05-19T09:11:57.097Z,98135.50
2023-05-19T09:14:23.915Z,98133.69
2023-05-19T09:16:52.783Z,98134.56
2023-05-19T09:19:20.808Z,98139.75
2023-05-19T09:21:58.504Z,98131.25
2023-05-19T09:24:25.700Z,98149.38
2023-05-19T09:26:55.411Z,98142.09
2023-05-19T09:29:23.136Z,98141.34
2023-05-19T09:31:54.531Z,98132.16
2023-05-19T09:34:22.359Z,98127.19
2023-05-19T09:36:53.315Z,98134.97
2023-05-19T09:39:21.239Z,98128.13
2023-05-19T09:41:51.384Z,98125.22
2023-05-19T09:44:21.040Z,98122.94
2023-05-19T09:46:48.308Z,98129.16
2023-05-19T09:49:18.616Z,98121.44
2023-05-19T09:51:45.782Z,98122.59
2023-05-19T09:54:15.013Z,98124.25
2023-05-19T09:56:41.588Z,98122.75
2023-05-19T09:59:08.342Z,98109.75
2023-05-19T10:01:36.326Z,98112.31
2023-05-19T10:04:05.263Z,98106.19
2023-05-19T10:06:32.576Z,98113.13
2023-05-19T10:08:59.914Z,98115.16
2023-05-19T10:11:27.393Z,98109.47
2023-05-19T10:13:53.942Z,98121.06
2023-05-19T10:16:21.888Z,98112.34
2023-05-19T10:18:49.910Z,98103.50
2023-05-19T10:21:16.660Z,98113.13
2023-05-19T10:23:43.148Z,98112.53
2023-05-19T10:26:10.448Z,98112.13
2023-05-19T10:28:39.492Z,98100.22
2023-05-19T10:31:08.427Z,98098.38
2023-05-19T10:33:47.111Z,98101.75
2023-05-19T10:36:17.518Z,98101.97
2023-05-19T10:38:50.613Z,98094.56
2023-05-19T10:41:41.464Z,98100.88
2023-05-19T10:44:31.448Z,98106.81
2023-05-19T10:46:58.171Z,98103.56
2023-05-19T10:49:24.756Z,98099.03
2023-05-19T10:51:57.703Z,98104.31
2023-05-19T10:54:46.273Z,98100.91
2023-05-19T10:57:19.955Z,98110.06
2023-05-19T10:59:47.199Z,98110.09
2023-05-19T11:02:32.866Z,98102.25
2023-05-19T11:05:08.175Z,98098.84
2023-05-19T11:07:34.956Z,98093.72
2023-05-19T11:10:05.400Z,98096.19
2023-05-19T11:12:39.823Z,98081.81
2023-05-19T11:15:07.539Z,98085.13
2023-05-19T11:17:35.068Z,98088.28
2023-05-19T11:20:01.695Z,98090.44
2023-05-19T11:22:28.366Z,98078.88
2023-05-19T11:24:55.263Z,98080.88
2023-05-19T11:27:32.585Z,98081.09
2023-05-19T11:30:02.290Z,98074.31
2023-05-19T11:32:30.208Z,98079.03
2023-05-19T11:34:57.672Z,98076.88
2023-05-19T11:37:24.204Z,98076.41
2023-05-19T11:39:52.155Z,98071.44
2023-05-19T11:42:19.145Z,98074.00
2023-05-19T11:44:46.423Z,98075.44
2023-05-19T11:47:13.231Z,98081.09
2023-05-19T11:49:43.048Z,98079.34
2023-05-19T11:52:09.532Z,98063.56
2023-05-19T11:54:39.351Z,98066.56
2023-05-19T11:57:06.241Z,98070.13
2023-05-19T11:59:35.584Z,98070.09
2023-05-19T12:02:22.739Z,98068.06
2023-05-19T12:04:49.505Z,98056.34
2023-05-19T12:07:19.883Z,98053.19
2023-05-19T12:09:46.981Z,98057.06
2023-05-19T12:12:14.733Z,98055.75
2023-05-19T12:14:41.825Z,98060.84
2023-05-19T12:17:15.663Z,98058.75
2023-05-19T12:19:45.850Z,98056.63
2023-05-19T12:22:12.925Z,98058.00
2023-05-19T12:24:40.311Z,98054.66
2023-05-19T12:27:07.477Z,98056.47
2023-05-19T12:29:34.588Z,98045.78
2023-05-19T12:32:01.756Z,98055.75
2023-05-19T12:34:28.398Z,98047.59
2023-05-19T12:36:54.924Z,98043.16
2023-05-19T12:39:22.550Z,98043.25
2023-05-19T12:41:49.065Z,98050.88
2023-05-19T12:44:15.940Z,98052.75
2023-05-19T12:46:43.873Z,98041.94
2023-05-19T12:49:10.920Z,98033.03
2023-05-19T12:51:37.403Z,98048.44
2023-05-19T12:54:04.830Z,98050.16
2023-05-19T12:56:31.475Z,98047.75
2023-05-19T12:59:00.328Z,98043.66
2023-05-19T13:01:26.892Z,98036.47
2023-05-19T13:03:53.720Z,98037.81
2023-05-19T13:06:20.451Z,98030.13
2023-05-19T13:08:47.300Z,98031.28
2023-05-19T13:11:13.819Z,98021.81
2023-05-19T13:13:40.307Z,98028.75
2023-05-19T13:16:06.964Z,98018.94
2023-05-19T13:18:35.305Z,98020.75
2023-05-19T13:21:01.812Z,98028.16
2023-05-19T13:23:28.316Z,98027.63
2023-05-19T13:25:54.854Z,98014.94
2023-05-19T13:28:21.442Z,98011.09
2023-05-19T13:30:49.545Z,98012.44
2023-05-19T13:33:16.335Z,98008.63
2023-05-19T13:35:42.939Z,98011.53
2023-05-19T13:38:10.226Z,98014.06
2023-05-19T13:40:37.627Z,98006.28
2023-05-19T13:43:04.403Z,98012.75
2023-05-19T13:45:31.058Z,98005.13
2023-05-19T13:47:57.703Z,97999.72
2023-05-19T13:50:24.233Z,97986.31
2023-05-19T13:52:50.854Z,98000.22
2023-05-19T13:55:17.613Z,97999.28
2023-05-19T13:57:44.852Z,98006.47
2023-05-19T14:00:11.539Z,98003.44
2023-05-19T14:02:40.991Z,97995.13
2023-05-19T14:05:08.037Z,97993.81
2023-05-19T14:07:35.124Z,97994.59
2023-05-19T14:10:02.591Z,97988.81
2023-05-19T14:12:37.890Z,97992.97
2023-05-19T14:15:11.484Z,97990.84
2023-05-19T14:17:38.251Z,97994.63
2023-05-19T14:20:05.165Z,97996.78
2023-05-19T14:22:32.262Z,97986.63
2023-05-19T14:25:00.343Z,97985.59
2023-05-19T14:27:26.867Z,97995.25
2023-05-19T14:29:53.447Z,97996.72
2023-05-19T14:32:20.524Z,98003.53
2023-05-19T14:34:47.229Z,98009.84
2023-05-19T14:37:13.736Z,98011.28
2023-05-19T14:39:40.337Z,98006.19
2023-05-19T14:42:06.842Z,98004.47
2023-05-19T14:44:33.346Z,98001.81
2023-05-19T14:47:01.065Z,98003.44
2023-05-19T14:49:27.677Z,97997.72
2023-05-19T14:51:54.327Z,97998.25
2023-05-19T14:54:20.852Z,98005.78
2023-05-19T14:56:47.424Z,97996.41
2023-05-19T14:59:13.982Z,98001.66
2023-05-19T15:01:40.519Z,97996.19
2023-05-19T15:04:07.082Z,98000.50
2023-05-19T15:06:33.616Z,97999.38
2023-05-19T15:09:00.204Z,97992.06
2023-05-19T15:11:26.729Z,97991.34
2023-05-19T15:13:53.321Z,97987.47
2023-05-19T15:16:19.833Z,98000.78
2023-05-19T15:18:46.465Z,97990.00
2023-05-19T15:21:13.250Z,97992.81
2023-05-19T15:23:39.767Z,97998.41
2023-05-19T15:26:06.723Z,97992.00
2023-05-19T15:28:33.614Z,97989.25
2023-05-19T15:31:00.255Z,97989.09
2023-05-19T15:33:26.949Z,97992.53
2023-05-19T15:35:54.248Z,97988.84
2023-05-19T15:38:20.791Z,97982.34
2023-05-19T15:40:47.351Z,97981.28
2023-05-19T15:43:14.109Z,97979.00
2023-05-19T15:45:40.977Z,97980.78
2023-05-19T15:48:07.594Z,97978.63
2023-05-19T15:50:34.519Z,97982.19
2023-05-19T15:53:01.294Z,97977.44
2023-05-19T15:55:27.845Z,97980.41
2023-05-19T15:57:54.332Z,97985.69
2023-05-19T16:00:20.998Z,97978.50
2023-05-19T16:02:47.806Z,97982.84
2023-05-19T16:05:14.558Z,97975.09
2023-05-19T16:07:42.159Z,97979.97
2023-05-19T16:10:09.064Z,97964.47
2023-05-19T16:12:36.678Z,97966.84
2023-05-19T16:15:03.576Z,97968.59
2023-05-19T16:17:30.360Z,97972.44
2023-05-19T16:19:56.882Z,97979.34
2023-05-19T16:22:24.814Z,97964.50
2023-05-19T16:24:51.820Z,97973.22
2023-05-19T16:27:18.657Z,97968.97
2023-05-19T16:29:45.126Z,97971.88
2023-05-19T16:32:11.747Z,97972.09
2023-05-19T16:34:38.357Z,97971.47
2023-05-19T16:37:04.896Z,97965.56
2023-05-19T16:39:31.480Z,97956.91
2023-05-19T16:41:57.967Z,97956.91
2023-05-19T16:44:25.611Z,97954.66
2023-05-19T16:46:52.174Z,97950.06
2023-05-19T16:49:18.745Z,97948.78
2023-05-19T16:51:46.843Z,97933.81
2023-05-19T16:54:14.784Z,97936.94
2023-05-19T16:56:41.319Z,97932.63
2023-05-19T16:59:09.224Z,97930.22
2023-05-19T17:01:35.807Z,97928.31
2023-05-19T17:04:02.430Z,97926.81
2023-05-19T17:06:28.991Z,97919.66
2023-05-19T17:08:55.512Z,97918.88
2023-05-19T17:11:22.024Z,97918.22
2023-05-19T17:13:48.708Z,97930.00
2023-05-19T17:16:15.369Z,97929.31
2023-05-19T17:18:42.025Z,97943.25
2023-05-19T17:21:08.635Z,97937.44
2023-05-19T17:23:35.155Z,97931.69
2023-05-19T17:26:01.927Z,97933.41
2023-05-19T17:28:28.585Z,97929.22
2023-05-19T17:30:55.168Z,97931.53
2023-05-19T17:33:21.784Z,97931.06
2023-05-19T17:35:48.319Z,97933.22
2023-05-19T17:38:14.816Z,97934.50
2023-05-19T17:40:42.204Z,97939.47
2023-05-19T17:43:08.838Z,97933.44
2023-05-19T17:45:35.592Z,97942.28
2023-05-19T17:48:02.376Z,97936.94
2023-05-19T17:50:28.918Z,97931.97
2023-05-19T17:52:56.151Z,97936.47
2023-05-19T17:55:24.751Z,97938.34
2023-05-19T17:57:51.293Z,97936.75
2023-05-19T18:00:18.563Z,97945.38
2023-05-19T18:02:45.345Z,97943.47
2023-05-19T18:05:12.380Z,97945.75
2023-05-19T18:07:39.879Z,97947.38
2023-05-19T18:10:06.953Z,97954.31
2023-05-19T18:12:33.496Z,97951.31
2023-05-19T18:15:00.152Z,97957.50
2023-05-19T18:17:26.755Z,97960.22
2023-05-19T18:19:54.545Z,97961.31
2023-05-19T18:22:21.220Z,97957.63
2023-05-19T18:24:47.855Z,97958.41
2023-05-19T18:27:14.571Z,97959.59
2023-05-19T18:29:41.250Z,97960.94
2023-05-19T18:32:08.017Z,97963.84
2023-05-19T18:34:34.561Z,97975.69
2023-05-19T18:37:01.067Z,97977.25
2023-05-19T18:39:29.312Z,97972.16
2023-05-19T18:41:56.015Z,97979.19
2023-05-19T18:44:22.559Z,97974.53
2023-05-19T18:46:49.148Z,97977.50
2023-05-19T18:49:15.761Z,97979.19
2023-05-19T18:51:42.504Z,97978.84
2023-05-19T18:54:09.140Z,97984.91
2023-05-19T18:56:35.705Z,97984.28
2023-05-19T18:59:02.273Z,97994.53
2023-05-19T19:01:29.013Z,97997.66
2023-05-19T19:03:55.838Z,98007.19
2023-05-19T19:06:23.288Z,98004.91
2023-05-19T19:08:50.084Z,98004.06
2023-05-19T19:11:16.598Z,98006.72
2023-05-19T19:13:43.705Z,98017.59
2023-05-19T19:16:10.674Z,98009.28
2023-05-19T19:18:37.436Z,98011.81
2023-05-19T19:21:05.661Z,98007.72
2023-05-19T19:23:32.663Z,98016.81
2023-05-19T19:25:59.178Z,98005.91
2023-05-19T19:28:25.843Z,98007.28
2023-05-19T19:30:52.318Z,98003.97
2023-05-19T19:33:18.934Z,98006.31
2023-05-19T19:35:46.945Z,98006.94
2023-05-19T19:38:13.602Z,98010.13
2023-05-19T19:40:40.219Z,98024.28
2023-05-19T19:43:06.737Z,98026.78
2023-05-19T19:45:34.734Z,98024.50
2023-05-19T19:48:01.766Z,98026.84
2023-05-19T19:50:28.366Z,98023.78
2023-05-19T19:52:54.882Z,98023.09
2023-05-19T19:55:21.657Z,98028.59
2023-05-19T19:57:49.403Z,98031.50
2023-05-19T20:00:16.582Z,98035.00
2023-05-19T20:02:55.822Z,98040.81
2023-05-19T20:05:29.707Z,98041.25
2023-05-19T20:07:56.235Z,98042.66
2023-05-19T20:10:22.754Z,98039.72
2023-05-19T20:12:50.523Z,98045.00
2023-05-19T20:15:17.194Z,98051.84
2023-05-19T20:17:43.872Z,98041.34
2023-05-19T20:20:11.745Z,98038.69
2023-05-19T20:22:38.930Z,98036.53
2023-05-19T20:25:05.804Z,98033.41
2023-05-19T20:27:32.323Z,98041.88
2023-05-19T20:29:58.830Z,98042.91
2023-05-19T20:32:25.630Z,98044.28
2023-05-19T20:34:52.194Z,98044.38
2023-05-19T20:37:18.744Z,98039.81
2023-05-19T20:39:45.341Z,98053.81
2023-05-19T20:42:12.241Z,98045.97
2023-05-19T20:44:38.837Z,98047.75
2023-05-19T20:47:08.081Z,98053.19
2023-05-19T20:49:35.248Z,98048.81
2023-05-19T20:52:01.856Z,98050.09
2023-05-19T20:54:28.373Z,98053.06
2023-05-19T20:56:54.918Z,98045.19
2023-05-19T20:59:21.539Z,98046.22
2023-05-19T21:01:48.189Z,98040.09
2023-05-19T21:04:14.904Z,98040.75
2023-05-19T21:06:41.528Z,98034.81
2023-05-19T21:09:08.018Z,98036.34
2023-05-19T21:11:34.637Z,98036.94
2023-05-19T21:14:04.085Z,98041.13
2023-05-19T21:16:31.330Z,98043.59
2023-05-19T21:18:58.075Z,98037.44
2023-05-19T21:21:24.689Z,98030.53
2023-05-19T21:23:51.218Z,98028.50
2023-05-19T21:26:17.871Z,98034.66
2023-05-19T21:28:44.363Z,98030.94
2023-05-19T21:31:11.081Z,98024.50
2023-05-19T21:33:37.671Z,98019.06
2023-05-19T21:36:04.277Z,98013.78
2023-05-19T21:38:30.925Z,98018.97
2023-05-19T21:40:57.561Z,98021.00
2023-05-19T21:43:24.083Z,98019.69
2023-05-19T21:45:50.690Z,98026.81
2023-05-19T21:48:17.344Z,98013.34
2023-05-19T21:50:43.927Z,98010.34
2023-05-19T21:53:10.608Z,98017.56
2023-05-19T21:55:37.113Z,98022.63
2023-05-19T21:58:03.716Z,98024.13
2023-05-19T22:00:30.204Z,98023.66
2023-05-19T22:02:56.891Z,98017.09
2023-05-19T22:05:23.459Z,98016.22
2023-05-19T22:07:49.958Z,98018.97
2023-05-19T22:10:16.502Z,98015.63
2023-05-19T22:12:43.066Z,98004.09
2023-05-19T22:15:09.955Z,98001.34
2023-05-19T22:17:36.691Z,97990.13
2023-05-19T22:20:03.449Z,97985.06
2023-05-19T22:22:29.950Z,97976.91
2023-05-19T22:24:56.633Z,97992.19
2023-05-19T22:27:23.186Z,98001.50
2023-05-19T22:29:49.779Z,98000.88
2023-05-19T22:32:18.272Z,97994.72
2023-05-19T22:34:45.219Z,97993.84
2023-05-19T22:37:11.808Z,97997.75
2023-05-19T22:39:38.893Z,97993.66
2023-05-19T22:42:05.607Z,97980.03
2023-05-19T22:44:32.112Z,97990.63
2023-05-19T22:46:58.632Z,98003.97
2023-05-19T22:49:26.168Z,97996.75
2023-05-19T22:51:52.837Z,97996.75
2023-05-19T22:54:19.322Z,98000.47
2023-05-19T22:56:48.421Z,97993.94
2023-05-19T22:59:17.624Z,97991.00
2023-05-19T23:01:46.351Z,97989.09
2023-05-19T23:04:13.597Z,97989.63
2023-05-19T23:06:40.420Z,97995.38
2023-05-19T23:09:06.931Z,97989.47
2023-05-19T23:11:34.245Z,97986.06
2023-05-19T23:14:00.809Z,97973.19
2023-05-19T23:16:27.349Z,97968.44
2023-05-19T23:18:53.863Z,97955.34
2023-05-19T23:21:20.465Z,97966.75
2023-05-19T23:23:46.933Z,97948.75
2023-05-19T23:26:13.652Z,97956.75
2023-05-19T23:28:41.491Z,97963.19
2023-05-19T23:31:08.174Z,97970.69
2023-05-19T23:33:34.704Z,97972.72
2023-05-19T23:36:05.478Z,97975.28
2023-05-19T23:38:31.966Z,97975.34
2023-05-19T23:40:58.450Z,97972.94
2023-05-19T23:43:24.921Z,97965.72
2023-05-19T23:45:51.409Z,97963.34
2023-05-19T23:48:17.945Z,97968.31
2023-05-19T23:50:44.594Z,97963.59
2023-05-19T23:53:11.364Z,97955.16
2023-05-19T23:55:37.817Z,97956.53
2023-05-19T23:58:04.441Z,97953.81
